sensor_id;sensor_type;location;lat;lon;timestamp;P1;durP1;ratioP1;P2;durP2;ratioP2
20497;SDS011;10407;53.238;10.448;2023-03-01T00:01:07;79.13;;;10.47;;
20497;SDS011;10407;53.238;10.448;2023-03-01T00:03:40;79.77;;;10.63;;
20497;SDS011;10407;53.238;10.448;2023-03-01T00:06:09;80.87;;;10.33;;
20497;SDS011;10407;53.238;10.448;2023-03-01T00:08:37;81.10;;;10.57;;
20497;SDS011;10407;53.238;10.448;2023-03-01T00:11:08;81.40;;;10.40;;
20497;SDS011;10407;53.238;10.448;2023-03-01T00:13:38;80.37;;;11.27;;
20497;SDS011;10407;53.238;10.448;2023-03-01T00:16:12;82.67;;;11.93;;
20497;SDS011;10407;53.238;10.448;2023-03-01T00:18:37;82.73;;;10.97;;
20497;SDS011;10407;53.238;10.448;2023-03-01T00:21:05;81.33;;;11.33;;
20497;SDS011;10407;53.238;10.448;2023-03-01T00:23:36;80.70;;;11.93;;
20497;SDS011;10407;53.238;10.448;2023-03-01T00:26:08;81.87;;;10.73;;
20497;SDS011;10407;53.238;10.448;2023-03-01T00:28:37;80.43;;;10.23;;
20497;SDS011;10407;53.238;10.448;2023-03-01T00:31:08;80.30;;;9.70;;
20497;SDS011;10407;53.238;10.448;2023-03-01T00:33:38;81.73;;;11.30;;
20497;SDS011;10407;53.238;10.448;2023-03-01T00:36:06;84.97;;;10.10;;
20497;SDS011;10407;53.238;10.448;2023-03-01T00:38:40;80.10;;;10.33;;
20497;SDS011;10407;53.238;10.448;2023-03-01T00:41:10;79.30;;;10.10;;
20497;SDS011;10407;53.238;10.448;2023-03-01T00:43:35;81.13;;;10.50;;
20497;SDS011;10407;53.238;10.448;2023-03-01T00:46:04;81.70;;;10.20;;
20497;SDS011;10407;53.238;10.448;2023-03-01T00:48:34;81.17;;;10.93;;
20497;SDS011;10407;53.238;10.448;2023-03-01T00:51:21;78.70;;;10.20;;
20497;SDS011;10407;53.238;10.448;2023-03-01T00:53:47;79.27;;;9.50;;
20497;SDS011;10407;53.238;10.448;2023-03-01T00:56:20;81.37;;;11.53;;
20497;SDS011;10407;53.238;10.448;2023-03-01T00:58:48;80.10;;;11.40;;
20497;SDS011;10407;53.238;10.448;2023-03-01T01:01:19;82.73;;;10.20;;
20497;SDS011;10407;53.238;10.448;2023-03-01T01:03:57;81.72;;;10.63;;
20497;SDS011;10407;53.238;10.448;2023-03-01T01:06:28;80.10;;;11.00;;
20497;SDS011;10407;53.238;10.448;2023-03-01T01:08:53;83.13;;;11.03;;
20497;SDS011;10407;53.238;10.448;2023-03-01T01:11:22;78.90;;;9.83;;
20497;SDS011;10407;53.238;10.448;2023-03-01T01:13:51;84.50;;;10.70;;
20497;SDS011;10407;53.238;10.448;2023-03-01T01:16:20;78.50;;;10.13;;
20497;SDS011;10407;53.238;10.448;2023-03-01T01:18:49;80.43;;;10.77;;
20497;SDS011;10407;53.238;10.448;2023-03-01T01:21:18;80.80;;;11.43;;
20497;SDS011;10407;53.238;10.448;2023-03-01T01:23:47;82.50;;;11.30;;
20497;SDS011;10407;53.238;10.448;2023-03-01T01:26:17;84.97;;;10.60;;
20497;SDS011;10407;53.238;10.448;2023-03-01T01:28:46;80.93;;;10.27;;
20497;SDS011;10407;53.238;10.448;2023-03-01T01:31:14;80.90;;;10.80;;
20497;SDS011;10407;53.238;10.448;2023-03-01T01:33:42;81.23;;;11.90;;
20497;SDS011;10407;53.238;10.448;2023-03-01T01:36:10;78.87;;;9.87;;
20497;SDS011;10407;53.238;10.448;2023-03-01T01:38:38;79.80;;;9.70;;
20497;SDS011;10407;53.238;10.448;2023-03-01T01:41:06;78.47;;;9.60;;
20497;SDS011;10407;53.238;10.448;2023-03-01T01:44:08;79.47;;;9.60;;
20497;SDS011;10407;53.238;10.448;2023-03-01T01:46:41;80.03;;;9.00;;
20497;SDS011;10407;53.238;10.448;2023-03-01T01:51:47;77.90;;;9.90;;
20497;SDS011;10407;53.238;10.448;2023-03-01T01:54:25;79.55;;;10.03;;
20497;SDS011;10407;53.238;10.448;2023-03-01T01:57:04;79.77;;;11.07;;
20497;SDS011;10407;53.238;10.448;2023-03-01T01:59:34;82.03;;;11.60;;
20497;SDS011;10407;53.238;10.448;2023-03-01T02:02:03;77.83;;;9.47;;
20497;SDS011;10407;53.238;10.448;2023-03-01T02:04:31;78.17;;;9.33;;
20497;SDS011;10407;53.238;10.448;2023-03-01T02:07:33;77.73;;;9.43;;
20497;SDS011;10407;53.238;10.448;2023-03-01T02:09:45;76.37;;;9.07;;
20497;SDS011;10407;53.238;10.448;2023-03-01T02:12:15;77.20;;;9.00;;
20497;SDS011;10407;53.238;10.448;2023-03-01T02:14:45;77.50;;;9.03;;
20497;SDS011;10407;53.238;10.448;2023-03-01T02:17:13;77.05;;;8.70;;
20497;SDS011;10407;53.238;10.448;2023-03-01T02:19:47;76.77;;;9.17;;
20497;SDS011;10407;53.238;10.448;2023-03-01T02:22:32;78.00;;;9.33;;
20497;SDS011;10407;53.238;10.448;2023-03-01T02:25:12;75.95;;;8.60;;
20497;SDS011;10407;53.238;10.448;2023-03-01T02:30:18;77.30;;;9.10;;
20497;SDS011;10407;53.238;10.448;2023-03-01T02:32:47;79.83;;;10.00;;
20497;SDS011;10407;53.238;10.448;2023-03-01T02:35:17;80.83;;;10.15;;
20497;SDS011;10407;53.238;10.448;2023-03-01T02:37:46;81.20;;;10.17;;
20497;SDS011;10407;53.238;10.448;2023-03-01T02:40:16;82.67;;;10.37;;
20497;SDS011;10407;53.238;10.448;2023-03-01T02:42:51;77.70;;;10.28;;
20497;SDS011;10407;53.238;10.448;2023-03-01T02:45:21;79.53;;;9.50;;
20497;SDS011;10407;53.238;10.448;2023-03-01T02:47:48;80.77;;;11.30;;
20497;SDS011;10407;53.238;10.448;2023-03-01T02:53:05;76.40;;;8.60;;
20497;SDS011;10407;53.238;10.448;2023-03-01T02:55:41;77.50;;;8.73;;
20497;SDS011;10407;53.238;10.448;2023-03-01T02:58:08;77.37;;;8.70;;
20497;SDS011;10407;53.238;10.448;2023-03-01T03:00:37;79.30;;;9.40;;
20497;SDS011;10407;53.238;10.448;2023-03-01T03:03:09;76.57;;;10.03;;
20497;SDS011;10407;53.238;10.448;2023-03-01T03:05:39;77.60;;;9.10;;
20497;SDS011;10407;53.238;10.448;2023-03-01T03:08:07;77.60;;;9.25;;
20497;SDS011;10407;53.238;10.448;2023-03-01T03:10:38;76.05;;;8.70;;
20497;SDS011;10407;53.238;10.448;2023-03-01T03:13:10;76.87;;;9.10;;
20497;SDS011;10407;53.238;10.448;2023-03-01T03:15:39;78.87;;;9.37;;
20497;SDS011;10407;53.238;10.448;2023-03-01T03:18:09;79.07;;;9.60;;
20497;SDS011;10407;53.238;10.448;2023-03-01T03:20:41;78.10;;;9.90;;
20497;SDS011;10407;53.238;10.448;2023-03-01T03:23:10;81.10;;;9.20;;
20497;SDS011;10407;53.238;10.448;2023-03-01T03:25:39;77.67;;;10.32;;
20497;SDS011;10407;53.238;10.448;2023-03-01T03:28:07;77.55;;;9.38;;
20497;SDS011;10407;53.238;10.448;2023-03-01T03:30:38;78.05;;;9.25;;
20497;SDS011;10407;53.238;10.448;2023-03-01T03:33:08;78.70;;;9.25;;
20497;SDS011;10407;53.238;10.448;2023-03-01T03:35:44;77.20;;;9.53;;
20497;SDS011;10407;53.238;10.448;2023-03-01T03:38:13;79.00;;;9.00;;
20497;SDS011;10407;53.238;10.448;2023-03-01T03:40:44;75.97;;;8.48;;
20497;SDS011;10407;53.238;10.448;2023-03-01T03:43:32;77.03;;;8.10;;
20497;SDS011;10407;53.238;10.448;2023-03-01T03:46:02;81.17;;;9.08;;
20497;SDS011;10407;53.238;10.448;2023-03-01T03:48:34;77.32;;;8.98;;
20497;SDS011;10407;53.238;10.448;2023-03-01T03:51:03;77.95;;;9.15;;
20497;SDS011;10407;53.238;10.448;2023-03-01T03:53:31;77.90;;;8.63;;
20497;SDS011;10407;53.238;10.448;2023-03-01T03:55:59;77.70;;;9.10;;
20497;SDS011;10407;53.238;10.448;2023-03-01T03:58:27;74.73;;;7.70;;
20497;SDS011;10407;53.238;10.448;2023-03-01T04:00:55;77.62;;;9.85;;
20497;SDS011;10407;53.238;10.448;2023-03-01T04:03:24;78.50;;;8.93;;
20497;SDS011;10407;53.238;10.448;2023-03-01T04:05:52;77.08;;;8.38;;
20497;SDS011;10407;53.238;10.448;2023-03-01T04:08:21;76.57;;;8.47;;
20497;SDS011;10407;53.238;10.448;2023-03-01T04:10:50;76.43;;;7.87;;
20497;SDS011;10407;53.238;10.448;2023-03-01T04:13:21;76.12;;;8.18;;
20497;SDS011;10407;53.238;10.448;2023-03-01T04:15:51;77.15;;;9.30;;
20497;SDS011;10407;53.238;10.448;2023-03-01T04:18:20;74.05;;;8.23;;
20497;SDS011;10407;53.238;10.448;2023-03-01T04:20:50;77.55;;;9.10;;
20497;SDS011;10407;53.238;10.448;2023-03-01T04:23:21;77.83;;;9.50;;
20497;SDS011;10407;53.238;10.448;2023-03-01T04:25:49;75.80;;;8.83;;
20497;SDS011;10407;53.238;10.448;2023-03-01T04:30:57;76.77;;;8.78;;
20497;SDS011;10407;53.238;10.448;2023-03-01T04:33:22;76.90;;;8.43;;
20497;SDS011;10407;53.238;10.448;2023-03-01T04:35:50;79.22;;;9.45;;
20497;SDS011;10407;53.238;10.448;2023-03-01T04:38:18;77.20;;;9.35;;
20497;SDS011;10407;53.238;10.448;2023-03-01T04:40:46;77.55;;;10.00;;
20497;SDS011;10407;53.238;10.448;2023-03-01T04:43:14;79.10;;;8.83;;
20497;SDS011;10407;53.238;10.448;2023-03-01T04:45:43;76.20;;;8.10;;
20497;SDS011;10407;53.238;10.448;2023-03-01T04:48:10;76.77;;;9.33;;
20497;SDS011;10407;53.238;10.448;2023-03-01T04:50:38;79.85;;;9.30;;
20497;SDS011;10407;53.238;10.448;2023-03-01T04:53:05;77.87;;;8.60;;
20497;SDS011;10407;53.238;10.448;2023-03-01T04:55:33;77.15;;;8.85;;
20497;SDS011;10407;53.238;10.448;2023-03-01T04:58:01;76.90;;;9.40;;
20497;SDS011;10407;53.238;10.448;2023-03-01T05:00:28;78.97;;;9.68;;
20497;SDS011;10407;53.238;10.448;2023-03-01T05:02:57;78.00;;;9.48;;
20497;SDS011;10407;53.238;10.448;2023-03-01T05:05:27;76.35;;;8.73;;
20497;SDS011;10407;53.238;10.448;2023-03-01T05:07:57;76.20;;;7.13;;
20497;SDS011;10407;53.238;10.448;2023-03-01T05:10:27;78.45;;;9.13;;
20497;SDS011;10407;53.238;10.448;2023-03-01T05:12:56;81.12;;;7.90;;
20497;SDS011;10407;53.238;10.448;2023-03-01T05:15:29;76.15;;;8.60;;
20497;SDS011;10407;53.238;10.448;2023-03-01T05:17:59;78.45;;;9.28;;
20497;SDS011;10407;53.238;10.448;2023-03-01T05:20:27;76.10;;;9.10;;
20497;SDS011;10407;53.238;10.448;2023-03-01T05:22:56;76.92;;;9.85;;
20497;SDS011;10407;53.238;10.448;2023-03-01T05:25:25;78.57;;;7.55;;
20497;SDS011;10407;53.238;10.448;2023-03-01T05:27:55;77.13;;;8.70;;
20497;SDS011;10407;53.238;10.448;2023-03-01T05:30:23;76.92;;;7.28;;
20497;SDS011;10407;53.238;10.448;2023-03-01T05:32:50;76.85;;;8.40;;
20497;SDS011;10407;53.238;10.448;2023-03-01T05:35:20;79.58;;;9.23;;
20497;SDS011;10407;53.238;10.448;2023-03-01T05:37:47;77.25;;;9.58;;
20497;SDS011;10407;53.238;10.448;2023-03-01T05:40:17;76.50;;;8.98;;
20497;SDS011;10407;53.238;10.448;2023-03-01T05:42:48;76.47;;;9.40;;
20497;SDS011;10407;53.238;10.448;2023-03-01T05:45:16;78.00;;;8.98;;
20497;SDS011;10407;53.238;10.448;2023-03-01T05:47:45;75.57;;;8.70;;
20497;SDS011;10407;53.238;10.448;2023-03-01T05:50:15;78.22;;;9.33;;
20497;SDS011;10407;53.238;10.448;2023-03-01T05:52:48;76.25;;;7.90;;
20497;SDS011;10407;53.238;10.448;2023-03-01T05:55:18;74.77;;;7.83;;
20497;SDS011;10407;53.238;10.448;2023-03-01T05:57:47;77.03;;;9.55;;
20497;SDS011;10407;53.238;10.448;2023-03-01T06:00:16;76.37;;;8.98;;
20497;SDS011;10407;53.238;10.448;2023-03-01T06:02:47;76.07;;;7.80;;
20497;SDS011;10407;53.238;10.448;2023-03-01T06:05:17;76.90;;;8.53;;
20497;SDS011;10407;53.238;10.448;2023-03-01T06:07:45;78.72;;;8.93;;
20497;SDS011;10407;53.238;10.448;2023-03-01T06:10:13;78.12;;;8.30;;
20497;SDS011;10407;53.238;10.448;2023-03-01T06:12:42;76.55;;;8.58;;
20497;SDS011;10407;53.238;10.448;2023-03-01T06:15:10;76.60;;;8.40;;
20497;SDS011;10407;53.238;10.448;2023-03-01T06:17:40;75.20;;;9.25;;
20497;SDS011;10407;53.238;10.448;2023-03-01T06:20:20;78.90;;;10.30;;
20497;SDS011;10407;53.238;10.448;2023-03-01T06:22:45;78.80;;;10.40;;
20497;SDS011;10407;53.238;10.448;2023-03-01T06:25:15;78.83;;;8.95;;
20497;SDS011;10407;53.238;10.448;2023-03-01T06:27:45;76.20;;;9.20;;
20497;SDS011;10407;53.238;10.448;2023-03-01T06:30:15;74.80;;;7.75;;
20497;SDS011;10407;53.238;10.448;2023-03-01T06:32:44;77.15;;;9.28;;
20497;SDS011;10407;53.238;10.448;2023-03-01T06:35:12;79.03;;;9.85;;
20497;SDS011;10407;53.238;10.448;2023-03-01T06:37:43;76.42;;;8.43;;
20497;SDS011;10407;53.238;10.448;2023-03-01T06:40:11;80.15;;;8.50;;
20497;SDS011;10407;53.238;10.448;2023-03-01T06:42:40;75.37;;;8.23;;
20497;SDS011;10407;53.238;10.448;2023-03-01T06:45:09;75.07;;;8.60;;
20497;SDS011;10407;53.238;10.448;2023-03-01T06:47:37;76.60;;;7.40;;
20497;SDS011;10407;53.238;10.448;2023-03-01T06:50:05;75.65;;;7.10;;
20497;SDS011;10407;53.238;10.448;2023-03-01T06:52:34;79.40;;;8.93;;
20497;SDS011;10407;53.238;10.448;2023-03-01T06:55:02;79.70;;;9.87;;
20497;SDS011;10407;53.238;10.448;2023-03-01T06:57:30;78.52;;;8.48;;
20497;SDS011;10407;53.238;10.448;2023-03-01T06:59:58;78.10;;;9.60;;
20497;SDS011;10407;53.238;10.448;2023-03-01T07:02:25;77.50;;;8.93;;
20497;SDS011;10407;53.238;10.448;2023-03-01T07:04:53;78.13;;;7.77;;
20497;SDS011;10407;53.238;10.448;2023-03-01T07:07:20;78.57;;;8.40;;
20497;SDS011;10407;53.238;10.448;2023-03-01T07:09:48;78.60;;;8.77;;
20497;SDS011;10407;53.238;10.448;2023-03-01T07:12:16;76.33;;;8.93;;
20497;SDS011;10407;53.238;10.448;2023-03-01T07:14:44;75.90;;;8.37;;
20497;SDS011;10407;53.238;10.448;2023-03-01T07:17:11;79.57;;;8.60;;
20497;SDS011;10407;53.238;10.448;2023-03-01T07:19:39;75.60;;;7.97;;
20497;SDS011;10407;53.238;10.448;2023-03-01T07:22:06;81.13;;;10.93;;
20497;SDS011;10407;53.238;10.448;2023-03-01T07:24:35;76.77;;;8.43;;
20497;SDS011;10407;53.238;10.448;2023-03-01T07:27:02;78.17;;;9.43;;
20497;SDS011;10407;53.238;10.448;2023-03-01T07:29:30;79.17;;;10.50;;
20497;SDS011;10407;53.238;10.448;2023-03-01T07:31:57;80.30;;;11.97;;
20497;SDS011;10407;53.238;10.448;2023-03-01T07:34:25;88.43;;;13.37;;
20497;SDS011;10407;53.238;10.448;2023-03-01T07:36:52;84.17;;;11.70;;
20497;SDS011;10407;53.238;10.448;2023-03-01T07:39:20;82.37;;;11.47;;
20497;SDS011;10407;53.238;10.448;2023-03-01T07:41:49;85.73;;;13.80;;
20497;SDS011;10407;53.238;10.448;2023-03-01T07:44:17;83.80;;;11.37;;
20497;SDS011;10407;53.238;10.448;2023-03-01T07:46:44;82.33;;;10.20;;
20497;SDS011;10407;53.238;10.448;2023-03-01T07:49:12;78.77;;;8.40;;
20497;SDS011;10407;53.238;10.448;2023-03-01T07:51:39;76.40;;;8.47;;
20497;SDS011;10407;53.238;10.448;2023-03-01T07:54:07;78.20;;;8.10;;
20497;SDS011;10407;53.238;10.448;2023-03-01T07:56:35;76.57;;;8.63;;
20497;SDS011;10407;53.238;10.448;2023-03-01T07:59:02;80.87;;;10.90;;
20497;SDS011;10407;53.238;10.448;2023-03-01T08:01:30;79.50;;;9.40;;
20497;SDS011;10407;53.238;10.448;2023-03-01T08:03:57;78.53;;;8.13;;
20497;SDS011;10407;53.238;10.448;2023-03-01T08:06:25;76.63;;;7.63;;
20497;SDS011;10407;53.238;10.448;2023-03-01T08:08:53;77.67;;;8.37;;
20497;SDS011;10407;53.238;10.448;2023-03-01T08:11:22;75.87;;;7.47;;
20497;SDS011;10407;53.238;10.448;2023-03-01T08:13:50;76.33;;;7.03;;
20497;SDS011;10407;53.238;10.448;2023-03-01T08:16:17;78.40;;;7.83;;
20497;SDS011;10407;53.238;10.448;2023-03-01T08:18:45;75.37;;;8.00;;
20497;SDS011;10407;53.238;10.448;2023-03-01T08:21:13;77.53;;;8.50;;
20497;SDS011;10407;53.238;10.448;2023-03-01T08:23:43;78.10;;;8.37;;
20497;SDS011;10407;53.238;10.448;2023-03-01T08:26:12;76.30;;;7.23;;
20497;SDS011;10407;53.238;10.448;2023-03-01T08:28:42;78.07;;;7.77;;
20497;SDS011;10407;53.238;10.448;2023-03-01T08:31:18;76.83;;;7.87;;
20497;SDS011;10407;53.238;10.448;2023-03-01T08:33:43;76.73;;;7.47;;
20497;SDS011;10407;53.238;10.448;2023-03-01T08:36:13;76.60;;;7.90;;
20497;SDS011;10407;53.238;10.448;2023-03-01T08:38:41;79.80;;;10.30;;
20497;SDS011;10407;53.238;10.448;2023-03-01T08:41:09;91.80;;;15.53;;
20497;SDS011;10407;53.238;10.448;2023-03-01T08:43:36;81.30;;;7.13;;
20497;SDS011;10407;53.238;10.448;2023-03-01T08:46:04;76.10;;;7.67;;
20497;SDS011;10407;53.238;10.448;2023-03-01T08:48:32;75.97;;;7.10;;
20497;SDS011;10407;53.238;10.448;2023-03-01T08:51:09;75.20;;;6.57;;
20497;SDS011;10407;53.238;10.448;2023-03-01T08:53:35;74.43;;;7.03;;
20497;SDS011;10407;53.238;10.448;2023-03-01T08:56:03;75.07;;;6.77;;
20497;SDS011;10407;53.238;10.448;2023-03-01T08:58:31;75.30;;;7.20;;
20497;SDS011;10407;53.238;10.448;2023-03-01T09:00:58;77.97;;;8.30;;
20497;SDS011;10407;53.238;10.448;2023-03-01T09:03:27;75.23;;;6.83;;
20497;SDS011;10407;53.238;10.448;2023-03-01T09:05:59;73.90;;;6.20;;
20497;SDS011;10407;53.238;10.448;2023-03-01T09:08:25;74.70;;;6.67;;
20497;SDS011;10407;53.238;10.448;2023-03-01T09:10:53;75.10;;;6.70;;
20497;SDS011;10407;53.238;10.448;2023-03-01T09:13:20;75.40;;;7.60;;
20497;SDS011;10407;53.238;10.448;2023-03-01T09:15:50;78.20;;;8.37;;
20497;SDS011;10407;53.238;10.448;2023-03-01T09:18:18;76.30;;;7.97;;
20497;SDS011;10407;53.238;10.448;2023-03-01T09:20:45;77.53;;;8.03;;
20497;SDS011;10407;53.238;10.448;2023-03-01T09:23:13;75.17;;;7.30;;
20497;SDS011;10407;53.238;10.448;2023-03-01T09:25:41;77.13;;;7.93;;
20497;SDS011;10407;53.238;10.448;2023-03-01T09:28:08;81.23;;;8.00;;
20497;SDS011;10407;53.238;10.448;2023-03-01T09:30:36;79.30;;;8.70;;
20497;SDS011;10407;53.238;10.448;2023-03-01T09:33:04;79.43;;;7.53;;
20497;SDS011;10407;53.238;10.448;2023-03-01T09:35:31;77.40;;;7.63;;
20497;SDS011;10407;53.238;10.448;2023-03-01T09:37:59;80.40;;;9.63;;
20497;SDS011;10407;53.238;10.448;2023-03-01T09:40:26;80.97;;;8.67;;
20497;SDS011;10407;53.238;10.448;2023-03-01T09:43:02;90.23;;;9.73;;
20497;SDS011;10407;53.238;10.448;2023-03-01T09:45:35;81.07;;;9.00;;
20497;SDS011;10407;53.238;10.448;2023-03-01T09:48:06;82.30;;;9.43;;
20497;SDS011;10407;53.238;10.448;2023-03-01T09:50:38;86.07;;;10.17;;
20497;SDS011;10407;53.238;10.448;2023-03-01T09:53:10;84.97;;;10.27;;
20497;SDS011;10407;53.238;10.448;2023-03-01T09:55:44;83.83;;;9.90;;
20497;SDS011;10407;53.238;10.448;2023-03-01T09:58:46;84.47;;;11.63;;
20497;SDS011;10407;53.238;10.448;2023-03-01T10:04:08;84.17;;;12.03;;
20497;SDS011;10407;53.238;10.448;2023-03-01T10:06:54;82.13;;;10.00;;
20497;SDS011;10407;53.238;10.448;2023-03-01T10:09:30;82.50;;;11.30;;
20497;SDS011;10407;53.238;10.448;2023-03-01T10:12:00;115.20;;;23.07;;
20497;SDS011;10407;53.238;10.448;2023-03-01T10:20:20;92.33;;;14.83;;
20497;SDS011;10407;53.238;10.448;2023-03-01T10:23:01;87.07;;;12.10;;
20497;SDS011;10407;53.238;10.448;2023-03-01T10:25:36;142.13;;;32.83;;
20497;SDS011;10407;53.238;10.448;2023-03-01T10:28:16;98.60;;;17.00;;
20497;SDS011;10407;53.238;10.448;2023-03-01T10:30:46;88.67;;;12.07;;
20497;SDS011;10407;53.238;10.448;2023-03-01T10:33:19;164.83;;;33.67;;
20497;SDS011;10407;53.238;10.448;2023-03-01T10:35:51;86.27;;;12.60;;
20497;SDS011;10407;53.238;10.448;2023-03-01T10:38:19;89.87;;;12.13;;
20497;SDS011;10407;53.238;10.448;2023-03-01T10:41:00;87.23;;;11.80;;
20497;SDS011;10407;53.238;10.448;2023-03-01T10:43:46;83.83;;;11.23;;
20497;SDS011;10407;53.238;10.448;2023-03-01T10:51:49;86.90;;;10.33;;
20497;SDS011;10407;53.238;10.448;2023-03-01T10:54:31;84.07;;;10.40;;
20497;SDS011;10407;53.238;10.448;2023-03-01T10:57:00;82.70;;;11.83;;
20497;SDS011;10407;53.238;10.448;2023-03-01T10:59:30;84.73;;;10.60;;
20497;SDS011;10407;53.238;10.448;2023-03-01T11:02:14;87.20;;;13.93;;
20497;SDS011;10407;53.238;10.448;2023-03-01T11:04:38;88.20;;;10.57;;
20497;SDS011;10407;53.238;10.448;2023-03-01T11:07:07;87.60;;;12.33;;
20497;SDS011;10407;53.238;10.448;2023-03-01T11:09:35;88.67;;;12.30;;
20497;SDS011;10407;53.238;10.448;2023-03-01T11:12:12;82.20;;;11.23;;
20497;SDS011;10407;53.238;10.448;2023-03-01T11:14:36;82.27;;;10.53;;
20497;SDS011;10407;53.238;10.448;2023-03-01T11:17:18;85.07;;;12.20;;
20497;SDS011;10407;53.238;10.448;2023-03-01T11:22:45;87.00;;;13.07;;
20497;SDS011;10407;53.238;10.448;2023-03-01T11:25:21;116.33;;;21.30;;
20497;SDS011;10407;53.238;10.448;2023-03-01T11:27:50;149.10;;;31.50;;
20497;SDS011;10407;53.238;10.448;2023-03-01T11:30:24;127.70;;;27.20;;
20497;SDS011;10407;53.238;10.448;2023-03-01T11:33:04;89.23;;;14.67;;
20497;SDS011;10407;53.238;10.448;2023-03-01T11:35:43;86.77;;;14.10;;
20497;SDS011;10407;53.238;10.448;2023-03-01T11:38:16;87.27;;;12.73;;
20497;SDS011;10407;53.238;10.448;2023-03-01T11:40:59;85.43;;;11.07;;
20497;SDS011;10407;53.238;10.448;2023-03-01T11:59:51;83.80;;;10.80;;
20497;SDS011;10407;53.238;10.448;2023-03-01T12:07:53;85.03;;;12.67;;
20497;SDS011;10407;53.238;10.448;2023-03-01T12:15:42;87.03;;;12.43;;
20497;SDS011;10407;53.238;10.448;2023-03-01T12:18:32;83.50;;;11.10;;
20497;SDS011;10407;53.238;10.448;2023-03-01T12:23:43;85.73;;;11.73;;
20497;SDS011;10407;53.238;10.448;2023-03-01T12:26:10;84.97;;;12.23;;
20497;SDS011;10407;53.238;10.448;2023-03-01T12:37:12;86.57;;;13.13;;
20497;SDS011;10407;53.238;10.448;2023-03-01T12:48:21;84.77;;;12.20;;
20497;SDS011;10407;53.238;10.448;2023-03-01T12:50:59;81.90;;;11.83;;
20497;SDS011;10407;53.238;10.448;2023-03-01T12:53:32;86.60;;;12.63;;
20497;SDS011;10407;53.238;10.448;2023-03-01T12:56:10;88.47;;;13.10;;
20497;SDS011;10407;53.238;10.448;2023-03-01T12:58:37;85.10;;;12.43;;
20497;SDS011;10407;53.238;10.448;2023-03-01T13:12:52;84.83;;;12.53;;
20497;SDS011;10407;53.238;10.448;2023-03-01T13:17:59;90.07;;;12.50;;
20497;SDS011;10407;53.238;10.448;2023-03-01T13:20:33;86.37;;;13.37;;
20497;SDS011;10407;53.238;10.448;2023-03-01T13:23:07;87.50;;;13.60;;
20497;SDS011;10407;53.238;10.448;2023-03-01T13:25:35;85.13;;;13.30;;
20497;SDS011;10407;53.238;10.448;2023-03-01T13:33:49;86.37;;;13.60;;
20497;SDS011;10407;53.238;10.448;2023-03-01T13:39:26;85.63;;;13.40;;
20497;SDS011;10407;53.238;10.448;2023-03-01T13:44:30;86.70;;;12.10;;
20497;SDS011;10407;53.238;10.448;2023-03-01T13:47:05;86.57;;;13.43;;
20497;SDS011;10407;53.238;10.448;2023-03-01T13:49:49;84.63;;;12.10;;
20497;SDS011;10407;53.238;10.448;2023-03-01T13:55:04;89.33;;;14.17;;
20497;SDS011;10407;53.238;10.448;2023-03-01T13:57:34;88.27;;;13.03;;
20497;SDS011;10407;53.238;10.448;2023-03-01T14:00:05;86.73;;;12.10;;
20497;SDS011;10407;53.238;10.448;2023-03-01T14:02:33;87.87;;;12.33;;
20497;SDS011;10407;53.238;10.448;2023-03-01T14:05:02;87.13;;;11.70;;
20497;SDS011;10407;53.238;10.448;2023-03-01T14:07:30;85.60;;;12.47;;
20497;SDS011;10407;53.238;10.448;2023-03-01T14:09:58;87.10;;;13.53;;
20497;SDS011;10407;53.238;10.448;2023-03-01T14:18:03;84.37;;;11.80;;
20497;SDS011;10407;53.238;10.448;2023-03-01T14:20:44;86.77;;;12.20;;
20497;SDS011;10407;53.238;10.448;2023-03-01T14:23:15;86.20;;;12.50;;
20497;SDS011;10407;53.238;10.448;2023-03-01T14:25:56;85.70;;;12.20;;
20497;SDS011;10407;53.238;10.448;2023-03-01T14:28:21;85.67;;;12.13;;
20497;SDS011;10407;53.238;10.448;2023-03-01T14:30:54;91.23;;;12.93;;
20497;SDS011;10407;53.238;10.448;2023-03-01T14:33:29;84.17;;;11.60;;
20497;SDS011;10407;53.238;10.448;2023-03-01T14:36:08;88.67;;;13.10;;
20497;SDS011;10407;53.238;10.448;2023-03-01T14:38:37;85.10;;;13.20;;
20497;SDS011;10407;53.238;10.448;2023-03-01T14:41:08;85.40;;;12.60;;
20497;SDS011;10407;53.238;10.448;2023-03-01T14:43:43;87.30;;;13.23;;
20497;SDS011;10407;53.238;10.448;2023-03-01T14:46:20;87.27;;;13.90;;
20497;SDS011;10407;53.238;10.448;2023-03-01T14:48:50;85.07;;;11.83;;
20497;SDS011;10407;53.238;10.448;2023-03-01T14:51:20;83.33;;;11.63;;
20497;SDS011;10407;53.238;10.448;2023-03-01T14:53:48;82.60;;;11.10;;
20497;SDS011;10407;53.238;10.448;2023-03-01T14:56:17;85.90;;;12.33;;
20497;SDS011;10407;53.238;10.448;2023-03-01T14:58:45;87.50;;;12.50;;
20497;SDS011;10407;53.238;10.448;2023-03-01T15:01:14;86.70;;;12.30;;
20497;SDS011;10407;53.238;10.448;2023-03-01T15:03:44;85.37;;;12.67;;
20497;SDS011;10407;53.238;10.448;2023-03-01T15:06:20;85.10;;;13.00;;
20497;SDS011;10407;53.238;10.448;2023-03-01T15:08:50;85.90;;;13.90;;
20497;SDS011;10407;53.238;10.448;2023-03-01T15:11:24;82.50;;;11.47;;
20497;SDS011;10407;53.238;10.448;2023-03-01T15:13:56;91.93;;;13.73;;
20497;SDS011;10407;53.238;10.448;2023-03-01T15:16:26;86.70;;;12.63;;
20497;SDS011;10407;53.238;10.448;2023-03-01T15:18:56;88.03;;;12.83;;
20497;SDS011;10407;53.238;10.448;2023-03-01T15:21:27;84.57;;;12.83;;
20497;SDS011;10407;53.238;10.448;2023-03-01T15:24:05;83.10;;;11.30;;
20497;SDS011;10407;53.238;10.448;2023-03-01T15:26:41;86.13;;;12.60;;
20497;SDS011;10407;53.238;10.448;2023-03-01T15:29:15;92.50;;;15.87;;
20497;SDS011;10407;53.238;10.448;2023-03-01T15:31:53;87.17;;;12.27;;
20497;SDS011;10407;53.238;10.448;2023-03-01T15:34:26;84.63;;;11.93;;
20497;SDS011;10407;53.238;10.448;2023-03-01T15:36:58;89.40;;;12.80;;
20497;SDS011;10407;53.238;10.448;2023-03-01T15:39:38;86.77;;;13.40;;
20497;SDS011;10407;53.238;10.448;2023-03-01T15:42:10;85.00;;;12.67;;
20497;SDS011;10407;53.238;10.448;2023-03-01T15:47:49;86.23;;;11.60;;
20497;SDS011;10407;53.238;10.448;2023-03-01T15:50:21;81.70;;;10.80;;
20497;SDS011;10407;53.238;10.448;2023-03-01T15:52:49;82.73;;;10.93;;
20497;SDS011;10407;53.238;10.448;2023-03-01T15:55:19;85.87;;;10.90;;
20497;SDS011;10407;53.238;10.448;2023-03-01T15:57:49;86.00;;;13.37;;
20497;SDS011;10407;53.238;10.448;2023-03-01T16:00:18;82.67;;;11.90;;
20497;SDS011;10407;53.238;10.448;2023-03-01T16:02:46;85.80;;;11.80;;
20497;SDS011;10407;53.238;10.448;2023-03-01T16:05:20;85.33;;;12.27;;
20497;SDS011;10407;53.238;10.448;2023-03-01T16:07:44;84.73;;;11.50;;
20497;SDS011;10407;53.238;10.448;2023-03-01T16:10:12;86.60;;;12.50;;
20497;SDS011;10407;53.238;10.448;2023-03-01T16:12:39;83.63;;;11.33;;
20497;SDS011;10407;53.238;10.448;2023-03-01T16:15:17;81.30;;;10.57;;
20497;SDS011;10407;53.238;10.448;2023-03-01T16:17:43;84.40;;;11.63;;
20497;SDS011;10407;53.238;10.448;2023-03-01T16:20:12;82.63;;;11.30;;
20497;SDS011;10407;53.238;10.448;2023-03-01T16:22:44;84.20;;;11.00;;
20497;SDS011;10407;53.238;10.448;2023-03-01T16:25:13;82.57;;;10.10;;
20497;SDS011;10407;53.238;10.448;2023-03-01T16:27:43;87.27;;;12.60;;